sensor_id;sensor_type;location;lat;lon;timestamp;pressure;altitude;pressure_sealevel;temperature
67822;BMP180;54434;50.096;20.082;2022-08-26T00:01:20;98816.00;;;17.30
67822;BMP180;54434;50.096;20.082;2022-08-26T00:04:04;98817.60;;;17.30
67822;BMP180;54434;50.096;20.082;2022-08-26T00:06:41;98821.80;;;17.20
67822;BMP180;54434;50.096;20.082;2022-08-26T00:09:20;98820.60;;;17.20
67822;BMP180;54434;50.096;20.082;2022-08-26T00:11:58;98821.00;;;17.10
67822;BMP180;54434;50.096;20.082;2022-08-26T00:14:34;98817.80;;;17.10
67822;BMP180;54434;50.096;20.082;2022-08-26T00:17:10;98815.60;;;17.10
67822;BMP180;54434;50.096;20.082;2022-08-26T00:19:47;98819.80;;;17.00
67822;BMP180;54434;50.096;20.082;2022-08-26T00:22:26;98818.20;;;17.00
67822;BMP180;54434;50.096;20.082;2022-08-26T00:25:02;98815.80;;;16.96
67822;BMP180;54434;50.096;20.082;2022-08-26T00:27:39;98824.20;;;16.90
67822;BMP180;54434;50.096;20.082;2022-08-26T00:30:23;98814.60;;;16.90
67822;BMP180;54434;50.096;20.082;2022-08-26T00:33:01;98810.60;;;16.90
67822;BMP180;54434;50.096;20.082;2022-08-26T00:35:38;98817.80;;;16.80
67822;BMP180;54434;50.096;20.082;2022-08-26T00:38:19;98814.60;;;16.80
67822;BMP180;54434;50.096;20.082;2022-08-26T00:40:57;98819.40;;;16.70
67822;BMP180;54434;50.096;20.082;2022-08-26T00:43:36;98817.80;;;16.70
67822;BMP180;54434;50.096;20.082;2022-08-26T00:46:25;98813.80;;;16.70
67822;BMP180;54434;50.096;20.082;2022-08-26T00:49:12;98814.40;;;16.60
67822;BMP180;54434;50.096;20.082;2022-08-26T00:51:56;98811.80;;;16.60
67822;BMP180;54434;50.096;20.082;2022-08-26T00:54:39;98810.80;;;16.50
67822;BMP180;54434;50.096;20.082;2022-08-26T00:57:21;98810.00;;;16.50
67822;BMP180;54434;50.096;20.082;2022-08-26T01:00:04;98811.00;;;16.50
67822;BMP180;54434;50.096;20.082;2022-08-26T01:02:42;98820.80;;;16.42
67822;BMP180;54434;50.096;20.082;2022-08-26T01:05:22;98817.80;;;16.40
67822;BMP180;54434;50.096;20.082;2022-08-26T01:07:59;98817.80;;;16.40
67822;BMP180;54434;50.096;20.082;2022-08-26T01:10:37;98821.00;;;16.40
67822;BMP180;54434;50.096;20.082;2022-08-26T01:13:14;98820.40;;;16.30
67822;BMP180;54434;50.096;20.082;2022-08-26T01:15:58;98821.00;;;16.30
67822;BMP180;54434;50.096;20.082;2022-08-26T01:18:35;98823.00;;;16.30
67822;BMP180;54434;50.096;20.082;2022-08-26T01:21:23;98826.40;;;16.20
67822;BMP180;54434;50.096;20.082;2022-08-26T01:24:03;98823.40;;;16.20
67822;BMP180;54434;50.096;20.082;2022-08-26T01:26:43;98825.80;;;16.20
67822;BMP180;54434;50.096;20.082;2022-08-26T01:29:21;98819.80;;;16.10
67822;BMP180;54434;50.096;20.082;2022-08-26T01:31:59;98819.60;;;16.10
67822;BMP180;54434;50.096;20.082;2022-08-26T01:34:40;98815.00;;;16.10
67822;BMP180;54434;50.096;20.082;2022-08-26T01:37:22;98815.60;;;16.10
67822;BMP180;54434;50.096;20.082;2022-08-26T01:39:57;98814.00;;;16.08
67822;BMP180;54434;50.096;20.082;2022-08-26T01:42:34;98809.80;;;16.00
67822;BMP180;54434;50.096;20.082;2022-08-26T01:45:17;98812.60;;;16.00
67822;BMP180;54434;50.096;20.082;2022-08-26T01:47:57;98816.40;;;15.92
67822;BMP180;54434;50.096;20.082;2022-08-26T01:50:38;98816.00;;;15.90
67822;BMP180;54434;50.096;20.082;2022-08-26T01:53:21;98817.00;;;15.90
67822;BMP180;54434;50.096;20.082;2022-08-26T01:56:02;98812.60;;;15.82
67822;BMP180;54434;50.096;20.082;2022-08-26T01:58:44;98817.00;;;15.80
67822;BMP180;54434;50.096;20.082;2022-08-26T02:01:23;98812.60;;;15.80
67822;BMP180;54434;50.096;20.082;2022-08-26T02:04:12;98811.80;;;15.80
67822;BMP180;54434;50.096;20.082;2022-08-26T02:06:50;98809.80;;;15.70
67822;BMP180;54434;50.096;20.082;2022-08-26T02:09:28;98807.20;;;15.70
67822;BMP180;54434;50.096;20.082;2022-08-26T02:12:06;98807.60;;;15.62
67822;BMP180;54434;50.096;20.082;2022-08-26T02:14:49;98810.00;;;15.60
67822;BMP180;54434;50.096;20.082;2022-08-26T02:17:36;98805.60;;;15.60
67822;BMP180;54434;50.096;20.082;2022-08-26T02:20:18;98804.40;;;15.50
67822;BMP180;54434;50.096;20.082;2022-08-26T02:22:55;98809.00;;;15.50
67822;BMP180;54434;50.096;20.082;2022-08-26T02:25:46;98804.00;;;15.42
67822;BMP180;54434;50.096;20.082;2022-08-26T02:28:21;98805.00;;;15.40
67822;BMP180;54434;50.096;20.082;2022-08-26T02:31:00;98806.00;;;15.40
67822;BMP180;54434;50.096;20.082;2022-08-26T02:33:38;98809.60;;;15.30
67822;BMP180;54434;50.096;20.082;2022-08-26T02:36:21;98805.40;;;15.30
67822;BMP180;54434;50.096;20.082;2022-08-26T02:39:02;98803.80;;;15.30
67822;BMP180;54434;50.096;20.082;2022-08-26T02:41:39;98802.20;;;15.24
67822;BMP180;54434;50.096;20.082;2022-08-26T02:44:18;98799.00;;;15.20
67822;BMP180;54434;50.096;20.082;2022-08-26T02:46:54;98797.20;;;15.20
67822;BMP180;54434;50.096;20.082;2022-08-26T02:49:31;98799.20;;;15.20
67822;BMP180;54434;50.096;20.082;2022-08-26T02:52:07;98796.20;;;15.10
67822;BMP180;54434;50.096;20.082;2022-08-26T02:54:43;98791.00;;;15.10
67822;BMP180;54434;50.096;20.082;2022-08-26T02:57:23;98791.60;;;15.10
67822;BMP180;54434;50.096;20.082;2022-08-26T03:00:02;98794.60;;;15.08
67822;BMP180;54434;50.096;20.082;2022-08-26T03:02:39;98792.60;;;15.00
67822;BMP180;54434;50.096;20.082;2022-08-26T03:05:15;98792.40;;;15.00
67822;BMP180;54434;50.096;20.082;2022-08-26T03:07:53;98791.80;;;15.00
67822;BMP180;54434;50.096;20.082;2022-08-26T03:10:30;98788.60;;;14.90
67822;BMP180;54434;50.096;20.082;2022-08-26T03:13:06;98788.20;;;14.90
67822;BMP180;54434;50.096;20.082;2022-08-26T03:15:43;98788.20;;;14.90
67822;BMP180;54434;50.096;20.082;2022-08-26T03:18:21;98791.20;;;14.82
67822;BMP180;54434;50.096;20.082;2022-08-26T03:20:57;98790.80;;;14.80
67822;BMP180;54434;50.096;20.082;2022-08-26T03:23:35;98792.40;;;14.80
67822;BMP180;54434;50.096;20.082;2022-08-26T03:26:14;98786.60;;;14.70
67822;BMP180;54434;50.096;20.082;2022-08-26T03:28:51;98787.00;;;14.70
67822;BMP180;54434;50.096;20.082;2022-08-26T03:31:45;98788.40;;;14.70
67822;BMP180;54434;50.096;20.082;2022-08-26T03:34:21;98785.80;;;14.70
67822;BMP180;54434;50.096;20.082;2022-08-26T03:36:59;98782.40;;;14.60
67822;BMP180;54434;50.096;20.082;2022-08-26T03:39:35;98785.20;;;14.60
67822;BMP180;54434;50.096;20.082;2022-08-26T03:42:11;98782.80;;;14.60
67822;BMP180;54434;50.096;20.082;2022-08-26T03:44:48;98785.20;;;14.60
67822;BMP180;54434;50.096;20.082;2022-08-26T03:47:25;98787.00;;;14.60
67822;BMP180;54434;50.096;20.082;2022-08-26T03:50:02;98790.20;;;14.60
67822;BMP180;54434;50.096;20.082;2022-08-26T03:52:39;98784.60;;;14.52
67822;BMP180;54434;50.096;20.082;2022-08-26T03:55:20;98783.80;;;14.54
67822;BMP180;54434;50.096;20.082;2022-08-26T03:57:58;98779.60;;;14.50
67822;BMP180;54434;50.096;20.082;2022-08-26T04:00:34;98780.20;;;14.50
67822;BMP180;54434;50.096;20.082;2022-08-26T04:03:11;98779.40;;;14.52
67822;BMP180;54434;50.096;20.082;2022-08-26T04:05:54;98783.80;;;14.60
67822;BMP180;54434;50.096;20.082;2022-08-26T04:08:30;98782.00;;;14.60
67822;BMP180;54434;50.096;20.082;2022-08-26T04:11:08;98783.40;;;14.66
67822;BMP180;54434;50.096;20.082;2022-08-26T04:13:44;98786.40;;;14.70
67822;BMP180;54434;50.096;20.082;2022-08-26T04:16:21;98791.40;;;14.80
67822;BMP180;54434;50.096;20.082;2022-08-26T04:19:00;98791.80;;;14.80
67822;BMP180;54434;50.096;20.082;2022-08-26T04:21:36;98797.00;;;14.90
67822;BMP180;54434;50.096;20.082;2022-08-26T04:24:15;98793.20;;;15.00
67822;BMP180;54434;50.096;20.082;2022-08-26T04:26:52;98798.00;;;15.06
67822;BMP180;54434;50.096;20.082;2022-08-26T04:29:30;98792.40;;;15.10
67822;BMP180;54434;50.096;20.082;2022-08-26T04:32:08;98797.20;;;15.30
67822;BMP180;54434;50.096;20.082;2022-08-26T04:34:44;98796.20;;;15.40
67822;BMP180;54434;50.096;20.082;2022-08-26T04:37:20;98795.40;;;15.64
67822;BMP180;54434;50.096;20.082;2022-08-26T04:39:58;98794.40;;;15.96
67822;BMP180;54434;50.096;20.082;2022-08-26T04:42:35;98798.20;;;16.32
67822;BMP180;54434;50.096;20.082;2022-08-26T04:45:13;98789.60;;;16.70
67822;BMP180;54434;50.096;20.082;2022-08-26T04:47:54;98789.20;;;17.14
67822;BMP180;54434;50.096;20.082;2022-08-26T04:50:32;98789.60;;;17.56
67822;BMP180;54434;50.096;20.082;2022-08-26T04:53:08;98790.20;;;18.06
67822;BMP180;54434;50.096;20.082;2022-08-26T04:55:44;98787.20;;;18.54
67822;BMP180;54434;50.096;20.082;2022-08-26T04:58:24;98788.40;;;19.00
67822;BMP180;54434;50.096;20.082;2022-08-26T05:01:00;98782.20;;;19.48
67822;BMP180;54434;50.096;20.082;2022-08-26T05:03:38;98788.80;;;19.98
67822;BMP180;54434;50.096;20.082;2022-08-26T05:06:16;98792.20;;;20.50
67822;BMP180;54434;50.096;20.082;2022-08-26T05:08:53;98794.40;;;20.96
67822;BMP180;54434;50.096;20.082;2022-08-26T05:11:29;98795.00;;;21.48
67822;BMP180;54434;50.096;20.082;2022-08-26T05:14:05;98795.80;;;22.00
67822;BMP180;54434;50.096;20.082;2022-08-26T05:16:42;98797.20;;;22.42
67822;BMP180;54434;50.096;20.082;2022-08-26T05:19:21;98801.00;;;22.94
67822;BMP180;54434;50.096;20.082;2022-08-26T05:22:01;98796.20;;;23.38
67822;BMP180;54434;50.096;20.082;2022-08-26T05:24:39;98800.20;;;23.82
67822;BMP180;54434;50.096;20.082;2022-08-26T05:27:15;98800.40;;;24.30
67822;BMP180;54434;50.096;20.082;2022-08-26T05:29:54;98800.40;;;24.64
67822;BMP180;54434;50.096;20.082;2022-08-26T05:32:30;98805.20;;;25.08
67822;BMP180;54434;50.096;20.082;2022-08-26T05:35:08;98804.40;;;25.48
67822;BMP180;54434;50.096;20.082;2022-08-26T05:37:44;98805.00;;;25.72
67822;BMP180;54434;50.096;20.082;2022-08-26T05:40:20;98803.00;;;26.02
67822;BMP180;54434;50.096;20.082;2022-08-26T05:42:57;98810.40;;;26.30
67822;BMP180;54434;50.096;20.082;2022-08-26T05:45:33;98812.60;;;26.40
67822;BMP180;54434;50.096;20.082;2022-08-26T05:48:09;98813.20;;;26.60
67822;BMP180;54434;50.096;20.082;2022-08-26T05:50:49;98814.80;;;26.90
67822;BMP180;54434;50.096;20.082;2022-08-26T05:53:26;98816.20;;;27.20
67822;BMP180;54434;50.096;20.082;2022-08-26T05:56:03;98810.00;;;27.40
67822;BMP180;54434;50.096;20.082;2022-08-26T05:58:41;98812.80;;;27.50
67822;BMP180;54434;50.096;20.082;2022-08-26T06:01:23;98810.40;;;27.60
67822;BMP180;54434;50.096;20.082;2022-08-26T06:04:02;98812.60;;;27.50
67822;BMP180;54434;50.096;20.082;2022-08-26T06:06:39;98811.00;;;27.50
67822;BMP180;54434;50.096;20.082;2022-08-26T06:09:19;98807.20;;;27.60
67822;BMP180;54434;50.096;20.082;2022-08-26T06:11:55;98809.00;;;27.50
67822;BMP180;54434;50.096;20.082;2022-08-26T06:14:32;98808.40;;;27.54
67822;BMP180;54434;50.096;20.082;2022-08-26T06:17:10;98808.80;;;27.70
67822;BMP180;54434;50.096;20.082;2022-08-26T06:19:46;98812.80;;;27.70
67822;BMP180;54434;50.096;20.082;2022-08-26T06:22:22;98818.00;;;27.80
67822;BMP180;54434;50.096;20.082;2022-08-26T06:25:17;98820.40;;;28.00
67822;BMP180;54434;50.096;20.082;2022-08-26T06:28:10;98816.00;;;28.10
67822;BMP180;54434;50.096;20.082;2022-08-26T06:30:47;98816.60;;;28.30
67822;BMP180;54434;50.096;20.082;2022-08-26T06:33:24;98816.60;;;28.30
67822;BMP180;54434;50.096;20.082;2022-08-26T06:36:03;98819.20;;;28.40
67822;BMP180;54434;50.096;20.082;2022-08-26T06:38:39;98818.00;;;28.60
67822;BMP180;54434;50.096;20.082;2022-08-26T06:41:16;98818.40;;;28.74
67822;BMP180;54434;50.096;20.082;2022-08-26T06:43:55;98812.40;;;28.80
67822;BMP180;54434;50.096;20.082;2022-08-26T06:46:31;98817.00;;;28.90
67822;BMP180;54434;50.096;20.082;2022-08-26T06:49:08;98815.00;;;28.90
67822;BMP180;54434;50.096;20.082;2022-08-26T06:51:44;98822.40;;;29.00
67822;BMP180;54434;50.096;20.082;2022-08-26T06:54:22;98822.60;;;29.10
67822;BMP180;54434;50.096;20.082;2022-08-26T06:56:58;98825.00;;;29.14
67822;BMP180;54434;50.096;20.082;2022-08-26T06:59:35;98823.80;;;29.20
67822;BMP180;54434;50.096;20.082;2022-08-26T07:02:11;98824.20;;;29.12
67822;BMP180;54434;50.096;20.082;2022-08-26T07:04:51;98826.00;;;29.20
67822;BMP180;54434;50.096;20.082;2022-08-26T07:07:30;98823.00;;;29.34
67822;BMP180;54434;50.096;20.082;2022-08-26T07:10:08;98830.80;;;29.48
67822;BMP180;54434;50.096;20.082;2022-08-26T07:12:45;98829.60;;;29.60
67822;BMP180;54434;50.096;20.082;2022-08-26T07:15:23;98828.80;;;29.60
67822;BMP180;54434;50.096;20.082;2022-08-26T07:18:05;98823.40;;;29.70
67822;BMP180;54434;50.096;20.082;2022-08-26T07:20:43;98826.80;;;29.80
67822;BMP180;54434;50.096;20.082;2022-08-26T07:23:19;98822.40;;;30.00
67822;BMP180;54434;50.096;20.082;2022-08-26T07:25:56;98817.20;;;30.20
67822;BMP180;54434;50.096;20.082;2022-08-26T07:28:32;98822.60;;;30.34
67822;BMP180;54434;50.096;20.082;2022-08-26T07:31:11;98818.40;;;30.30
67822;BMP180;54434;50.096;20.082;2022-08-26T07:33:48;98819.20;;;30.20
67822;BMP180;54434;50.096;20.082;2022-08-26T07:36:26;98815.40;;;30.10
67822;BMP180;54434;50.096;20.082;2022-08-26T07:39:04;98812.00;;;30.10
67822;BMP180;54434;50.096;20.082;2022-08-26T07:41:40;98814.60;;;30.00
67822;BMP180;54434;50.096;20.082;2022-08-26T07:44:17;98817.20;;;29.90
67822;BMP180;54434;50.096;20.082;2022-08-26T07:46:53;98814.20;;;29.90
67822;BMP180;54434;50.096;20.082;2022-08-26T07:49:30;98806.80;;;29.80
67822;BMP180;54434;50.096;20.082;2022-08-26T07:52:07;98805.60;;;29.70
67822;BMP180;54434;50.096;20.082;2022-08-26T07:54:44;98807.00;;;29.60
67822;BMP180;54434;50.096;20.082;2022-08-26T07:57:20;98812.20;;;29.60
67822;BMP180;54434;50.096;20.082;2022-08-26T07:59:58;98809.40;;;29.68
67822;BMP180;54434;50.096;20.082;2022-08-26T08:02:35;98814.00;;;29.60
67822;BMP180;54434;50.096;20.082;2022-08-26T08:05:13;98811.60;;;29.60
67822;BMP180;54434;50.096;20.082;2022-08-26T08:07:50;98818.00;;;29.60
67822;BMP180;54434;50.096;20.082;2022-08-26T08:10:47;98809.60;;;29.50
67822;BMP180;54434;50.096;20.082;2022-08-26T08:13:23;98812.40;;;29.50
67822;BMP180;54434;50.096;20.082;2022-08-26T08:16:00;98808.20;;;29.46
67822;BMP180;54434;50.096;20.082;2022-08-26T08:18:36;98804.20;;;29.60
67822;BMP180;54434;50.096;20.082;2022-08-26T08:21:14;98803.20;;;29.50
67822;BMP180;54434;50.096;20.082;2022-08-26T08:23:58;98804.80;;;29.50
67822;BMP180;54434;50.096;20.082;2022-08-26T08:26:34;98800.00;;;29.58
67822;BMP180;54434;50.096;20.082;2022-08-26T08:29:10;98797.80;;;29.64
67822;BMP180;54434;50.096;20.082;2022-08-26T08:31:46;98800.80;;;29.70
67822;BMP180;54434;50.096;20.082;2022-08-26T08:34:32;98794.40;;;29.60
67822;BMP180;54434;50.096;20.082;2022-08-26T08:37:09;98794.60;;;29.70
67822;BMP180;54434;50.096;20.082;2022-08-26T08:39:46;98796.20;;;29.60
67822;BMP180;54434;50.096;20.082;2022-08-26T08:42:49;98799.00;;;29.50
67822;BMP180;54434;50.096;20.082;2022-08-26T08:45:38;98787.60;;;29.46
67822;BMP180;54434;50.096;20.082;2022-08-26T08:48:22;98785.60;;;29.46
67822;BMP180;54434;50.096;20.082;2022-08-26T08:51:15;98793.80;;;29.50
67822;BMP180;54434;50.096;20.082;2022-08-26T08:53:56;98787.00;;;29.30
67822;BMP180;54434;50.096;20.082;2022-08-26T08:56:38;98783.40;;;29.30
67822;BMP180;54434;50.096;20.082;2022-08-26T08:59:20;98782.40;;;29.30
67822;BMP180;54434;50.096;20.082;2022-08-26T09:02:13;98784.40;;;29.20
67822;BMP180;54434;50.096;20.082;2022-08-26T09:05:15;98781.20;;;29.10
67822;BMP180;54434;50.096;20.082;2022-08-26T09:07:58;98777.60;;;28.94
67822;BMP180;54434;50.096;20.082;2022-08-26T09:10:44;98774.20;;;28.78
67822;BMP180;54434;50.096;20.082;2022-08-26T09:13:23;98776.60;;;28.60
67822;BMP180;54434;50.096;20.082;2022-08-26T09:16:12;98775.40;;;28.40
67822;BMP180;54434;50.096;20.082;2022-08-26T09:19:11;98773.80;;;28.20
67822;BMP180;54434;50.096;20.082;2022-08-26T09:22:01;98773.40;;;27.92
67822;BMP180;54434;50.096;20.082;2022-08-26T09:24:43;98765.40;;;27.70
67822;BMP180;54434;50.096;20.082;2022-08-26T09:27:42;98762.80;;;27.70
67822;BMP180;54434;50.096;20.082;2022-08-26T09:30:27;98767.20;;;27.70
67822;BMP180;54434;50.096;20.082;2022-08-26T09:33:08;98770.60;;;27.60
67822;BMP180;54434;50.096;20.082;2022-08-26T09:35:46;98764.20;;;27.62
67822;BMP180;54434;50.096;20.082;2022-08-26T09:38:33;98758.60;;;27.70
67822;BMP180;54434;50.096;20.082;2022-08-26T09:41:28;98758.00;;;27.70
67822;BMP180;54434;50.096;20.082;2022-08-26T09:44:19;98757.60;;;27.60
67822;BMP180;54434;50.096;20.082;2022-08-26T09:47:02;98755.40;;;27.60
67822;BMP180;54434;50.096;20.082;2022-08-26T09:49:42;98749.20;;;27.70
67822;BMP180;54434;50.096;20.082;2022-08-26T09:52:24;98752.00;;;27.70
67822;BMP180;54434;50.096;20.082;2022-08-26T09:55:18;98750.80;;;27.70
67822;BMP180;54434;50.096;20.082;2022-08-26T09:57:56;98746.80;;;27.62
67822;BMP180;54434;50.096;20.082;2022-08-26T10:00:54;98739.60;;;27.60
67822;BMP180;54434;50.096;20.082;2022-08-26T10:03:36;98737.40;;;27.60
67822;BMP180;54434;50.096;20.082;2022-08-26T10:06:25;98735.20;;;27.70
67822;BMP180;54434;50.096;20.082;2022-08-26T10:09:03;98735.20;;;27.80
67822;BMP180;54434;50.096;20.082;2022-08-26T10:11:50;98737.60;;;27.90
67822;BMP180;54434;50.096;20.082;2022-08-26T10:14:34;98737.40;;;27.90
67822;BMP180;54434;50.096;20.082;2022-08-26T10:17:24;98735.00;;;27.96
67822;BMP180;54434;50.096;20.082;2022-08-26T10:20:11;98733.00;;;28.00
67822;BMP180;54434;50.096;20.082;2022-08-26T10:23:03;98733.60;;;28.00
67822;BMP180;54434;50.096;20.082;2022-08-26T10:25:52;98731.40;;;28.06
67822;BMP180;54434;50.096;20.082;2022-08-26T10:28:42;98732.40;;;28.10
67822;BMP180;54434;50.096;20.082;2022-08-26T10:31:35;98727.60;;;28.10
67822;BMP180;54434;50.096;20.082;2022-08-26T10:34:16;98728.60;;;28.20
67822;BMP180;54434;50.096;20.082;2022-08-26T10:37:00;98729.80;;;28.14
67822;BMP180;54434;50.096;20.082;2022-08-26T10:39:56;98727.60;;;28.30
67822;BMP180;54434;50.096;20.082;2022-08-26T10:42:41;98729.40;;;28.30
67822;BMP180;54434;50.096;20.082;2022-08-26T10:45:24;98718.40;;;28.30
67822;BMP180;54434;50.096;20.082;2022-08-26T10:48:07;98716.60;;;28.30
67822;BMP180;54434;50.096;20.082;2022-08-26T10:50:47;98710.80;;;28.30
67822;BMP180;54434;50.096;20.082;2022-08-26T10:53:40;98705.40;;;28.30
67822;BMP180;54434;50.096;20.082;2022-08-26T10:56:37;98707.00;;;28.34
67822;BMP180;54434;50.096;20.082;2022-08-26T10:59:26;98702.40;;;28.32
67822;BMP180;54434;50.096;20.082;2022-08-26T11:02:14;98704.60;;;28.40
67822;BMP180;54434;50.096;20.082;2022-08-26T11:05:01;98706.60;;;28.40
67822;BMP180;54434;50.096;20.082;2022-08-26T11:07:45;98698.60;;;28.50
67822;BMP180;54434;50.096;20.082;2022-08-26T11:10:58;98699.60;;;28.50
67822;BMP180;54434;50.096;20.082;2022-08-26T11:14:04;98697.00;;;28.58
67822;BMP180;54434;50.096;20.082;2022-08-26T11:16:45;98687.60;;;28.60
67822;BMP180;54434;50.096;20.082;2022-08-26T11:20:00;98691.80;;;28.60
67822;BMP180;54434;50.096;20.082;2022-08-26T11:22:47;98696.20;;;28.70
67822;BMP180;54434;50.096;20.082;2022-08-26T11:25:24;98697.80;;;28.80
67822;BMP180;54434;50.096;20.082;2022-08-26T11:28:05;98699.80;;;28.80
67822;BMP180;54434;50.096;20.082;2022-08-26T11:30:52;98687.20;;;28.80
67822;BMP180;54434;50.096;20.082;2022-08-26T11:33:59;98685.00;;;28.80
67822;BMP180;54434;50.096;20.082;2022-08-26T11:37:00;98685.20;;;28.80
67822;BMP180;54434;50.096;20.082;2022-08-26T11:39:54;98686.00;;;28.80
67822;BMP180;54434;50.096;20.082;2022-08-26T11:42:41;98681.40;;;28.90
67822;BMP180;54434;50.096;20.082;2022-08-26T11:45:25;98674.60;;;28.96
67822;BMP180;54434;50.096;20.082;2022-08-26T11:48:26;98668.00;;;29.00
67822;BMP180;54434;50.096;20.082;2022-08-26T11:51:06;98667.20;;;29.00
67822;BMP180;54434;50.096;20.082;2022-08-26T11:53:44;98671.00;;;29.10
67822;BMP180;54434;50.096;20.082;2022-08-26T11:56:28;98666.60;;;29.10
67822;BMP180;54434;50.096;20.082;2022-08-26T11:59:12;98661.60;;;29.10
67822;BMP180;54434;50.096;20.082;2022-08-26T12:01:54;98659.00;;;29.10
67822;BMP180;54434;50.096;20.082;2022-08-26T12:04:37;98661.60;;;29.20
67822;BMP180;54434;50.096;20.082;2022-08-26T12:07:16;98656.20;;;29.20
67822;BMP180;54434;50.096;20.082;2022-08-26T12:10:02;98651.20;;;29.20
67822;BMP180;54434;50.096;20.082;2022-08-26T12:12:39;98643.00;;;29.24
67822;BMP180;54434;50.096;20.082;2022-08-26T12:15:20;98652.80;;;29.30
67822;BMP180;54434;50.096;20.082;2022-08-26T12:17:56;98638.80;;;29.30
67822;BMP180;54434;50.096;20.082;2022-08-26T12:20:37;98635.00;;;29.38
67822;BMP180;54434;50.096;20.082;2022-08-26T12:23:43;98631.80;;;29.40
67822;BMP180;54434;50.096;20.082;2022-08-26T12:26:28;98634.00;;;29.30
67822;BMP180;54434;50.096;20.082;2022-08-26T12:29:09;98636.00;;;29.20
67822;BMP180;54434;50.096;20.082;2022-08-26T12:32:14;98640.80;;;29.20
67822;BMP180;54434;50.096;20.082;2022-08-26T12:34:51;98631.40;;;29.16
67822;BMP180;54434;50.096;20.082;2022-08-26T12:37:31;98632.40;;;29.10
67822;BMP180;54434;50.096;20.082;2022-08-26T12:40:41;98628.40;;;29.20
67822;BMP180;54434;50.096;20.082;2022-08-26T12:43:42;98624.60;;;29.30
67822;BMP180;54434;50.096;20.082;2022-08-26T12:46:28;98621.60;;;29.30
67822;BMP180;54434;50.096;20.082;2022-08-26T12:49:04;98619.00;;;29.40
67822;BMP180;54434;50.096;20.082;2022-08-26T12:51:40;98621.40;;;29.50
67822;BMP180;54434;50.096;20.082;2022-08-26T12:54:24;98619.80;;;29.50
67822;BMP180;54434;50.096;20.082;2022-08-26T12:57:29;98616.80;;;29.50
67822;BMP180;54434;50.096;20.082;2022-08-26T13:00:33;98618.00;;;29.44
67822;BMP180;54434;50.096;20.082;2022-08-26T13:03:43;98615.80;;;29.48
67822;BMP180;54434;50.096;20.082;2022-08-26T13:06:30;98609.60;;;29.40
67822;BMP180;54434;50.096;20.082;2022-08-26T13:09:31;98606.60;;;29.30
67822;BMP180;54434;50.096;20.082;2022-08-26T13:12:08;98611.20;;;29.30
67822;BMP180;54434;50.096;20.082;2022-08-26T13:14:45;98605.20;;;29.30
67822;BMP180;54434;50.096;20.082;2022-08-26T13:17:21;98605.40;;;29.30
67822;BMP180;54434;50.096;20.082;2022-08-26T13:19:58;98600.60;;;29.38
67822;BMP180;54434;50.096;20.082;2022-08-26T13:22:38;98598.40;;;29.40
67822;BMP180;54434;50.096;20.082;2022-08-26T13:25:15;98595.60;;;29.42
67822;BMP180;54434;50.096;20.082;2022-08-26T13:27:53;98593.20;;;29.50
67822;BMP180;54434;50.096;20.082;2022-08-26T13:30:30;98589.60;;;29.40
67822;BMP180;54434;50.096;20.082;2022-08-26T13:33:06;98594.80;;;29.40
67822;BMP180;54434;50.096;20.082;2022-08-26T13:35:46;98591.60;;;29.50
67822;BMP180;54434;50.096;20.082;2022-08-26T13:38:22;98590.40;;;29.50
67822;BMP180;54434;50.096;20.082;2022-08-26T13:41:08;98585.40;;;29.50
67822;BMP180;54434;50.096;20.082;2022-08-26T13:43:47;98586.80;;;29.50
67822;BMP180;54434;50.096;20.082;2022-08-26T13:46:23;98584.00;;;29.50
67822;BMP180;54434;50.096;20.082;2022-08-26T13:49:00;98591.00;;;29.40
67822;BMP180;54434;50.096;20.082;2022-08-26T13:51:37;98588.20;;;29.48
67822;BMP180;54434;50.096;20.082;2022-08-26T13:54:13;98585.60;;;29.50
67822;BMP180;54434;50.096;20.082;2022-08-26T13:56:49;98583.60;;;29.48
67822;BMP180;54434;50.096;20.082;2022-08-26T13:59:25;98585.20;;;29.46
67822;BMP180;54434;50.096;20.082;2022-08-26T14:02:02;98584.80;;;29.56
67822;BMP180;54434;50.096;20.082;2022-08-26T14:04:38;98584.20;;;29.60
67822;BMP180;54434;50.096;20.082;2022-08-26T14:07:14;98586.80;;;29.50
67822;BMP180;54434;50.096;20.082;2022-08-26T14:09:50;98584.00;;;29.50
67822;BMP180;54434;50.096;20.082;2022-08-26T14:12:26;98576.20;;;29.50
67822;BMP180;54434;50.096;20.082;2022-08-26T14:15:03;98577.20;;;29.50
67822;BMP180;54434;50.096;20.082;2022-08-26T14:17:40;98576.60;;;29.50
67822;BMP180;54434;50.096;20.082;2022-08-26T14:20:24;98577.60;;;29.40
67822;BMP180;54434;50.096;20.082;2022-08-26T14:23:00;98575.00;;;29.40
67822;BMP180;54434;50.096;20.082;2022-08-26T14:25:47;98569.20;;;29.40
67822;BMP180;54434;50.096;20.082;2022-08-26T14:28:23;98567.40;;;29.40
67822;BMP180;54434;50.096;20.082;2022-08-26T14:31:06;98572.00;;;29.30
67822;BMP180;54434;50.096;20.082;2022-08-26T14:33:43;98568.80;;;29.30
67822;BMP180;54434;50.096;20.082;2022-08-26T14:36:19;98566.80;;;29.30
67822;BMP180;54434;50.096;20.082;2022-08-26T14:39:10;98564.80;;;29.20
67822;BMP180;54434;50.096;20.082;2022-08-26T14:41:53;98569.80;;;29.20
67822;BMP180;54434;50.096;20.082;2022-08-26T14:44:33;98564.80;;;29.20
67822;BMP180;54434;50.096;20.082;2022-08-26T14:47:09;98565.00;;;29.30
67822;BMP180;54434;50.096;20.082;2022-08-26T14:49:45;98565.60;;;29.30
67822;BMP180;54434;50.096;20.082;2022-08-26T14:52:21;98561.00;;;29.30
67822;BMP180;54434;50.096;20.082;2022-08-26T14:54:57;98567.00;;;29.20
67822;BMP180;54434;50.096;20.082;2022-08-26T14:57:33;98565.40;;;29.20
67822;BMP180;54434;50.096;20.082;2022-08-26T15:00:13;98568.60;;;29.20
67822;BMP180;54434;50.096;20.082;2022-08-26T15:02:49;98570.00;;;29.18
67822;BMP180;54434;50.096;20.082;2022-08-26T15:05:26;98573.40;;;29.20
67822;BMP180;54434;50.096;20.082;2022-08-26T15:08:02;98571.20;;;29.20
67822;BMP180;54434;50.096;20.082;2022-08-26T15:10:44;98576.60;;;29.10
67822;BMP180;54434;50.096;20.082;2022-08-26T15:13:20;98575.20;;;29.10
67822;BMP180;54434;50.096;20.082;2022-08-26T15:15:56;98571.20;;;29.10